Tiempo atmosférico en la estación meteorológica de Teruel, Santa Eulalia del Campo, Teruel (1000 m.)



Fecha
DESCASC
Temp. máxima en grados centígrados (hora)
DESCASC
Temp. mínima en grados centígrados (hora)
DESCASC
Temp. media en grados centígrados
DESCASC
Racha de viento máxima en m/sg (hora)
DESCASC
Velocidad máxima media en intervalos de 10 minutos(hora)
DESCASC
Precipitaciones diarias en mm
DESCASC
Precipitaciones de 00:00 a 06:00 en mm
DESCASC
Precipitaciones de 06:00 a 12:00 en mm
DESCASC
Precipitaciones de 12:00 a 18:00 en mm
DESCASC
Precipitaciones de 18:00 a 24:00 en mm
DESCASC

Gráficas

Temp. máximas Temp. mínimas Temp. medias Precipitaciones Rachas de viento máximas Velocidades máximas media en intervalos de 10 minutos

Datos horarios

Fecha y hora oficial Temperatura (ºC) Velocidad del viento (km/h) Dirección del viento Racha (km/h) Dirección de racha Precipitación (mm) Presión (hPa) Tendencia (hPa) Humedad (%)
2020-07-11 23:00:00 21.4 15 Sur 25 Sur 0 -- -- 70
2020-07-11 22:00:00 22.8 14 Sur 31 Sur 0 -- -- 63
2020-07-11 21:00:00 25.8 21 Sur 33 Sur 0 -- -- 47
2020-07-11 20:00:00 28.1 22 Sur 35 Sur 0 -- -- 41
2020-07-11 19:00:00 29.3 15 Sur 33 Sur 0 -- -- 39
2020-07-11 18:00:00 30.5 19 Sur 34 Sur 0 -- -- 34
2020-07-11 17:00:00 31 20 Sur 33 Sur 0 -- -- 30
2020-07-11 16:00:00 30.9 18 Sur 37 Sur 0 -- -- 30
2020-07-11 15:00:00 31.2 16 Sur 30 Sudeste 0 -- -- 27
2020-07-11 14:00:00 30.6 8 Sur 20 Sudoeste 0 -- -- 28
2020-07-11 13:00:00 28.1 8 Sur 19 Sudoeste 0 -- -- 35
2020-07-11 12:00:00 26 3 Sudeste 10 Sudeste 0 -- -- 44
2020-07-11 11:00:00 22.2 4 Este 12 Norte 0 -- -- 60
2020-07-11 10:00:00 19.5 7 Norte 17 Nordeste 0 -- -- 69
2020-07-11 09:00:00 16.1 12 Nordeste 21 Nordeste 0 -- -- 81
2020-07-11 08:00:00 13.9 14 Norte 21 Nordeste 0 -- -- 89
2020-07-11 07:00:00 12 6 Norte 10 Norte 0 -- -- 96
2020-07-11 06:00:00 12.6 7 Nordeste 13 Nordeste 0 -- -- 94
2020-07-11 05:00:00 13.3 9 Norte 15 Nordeste 0 -- -- 92
2020-07-11 04:00:00 13.9 8 Norte 14 Norte 0 -- -- 91
2020-07-11 03:00:00 14.5 6 Norte 12 Nordeste 0 -- -- 89
2020-07-11 02:00:00 15.7 7 Norte 13 Norte 0 -- -- 84
2020-07-11 01:00:00 17.2 9 Nordeste 13 Norte 0 -- -- 81
2020-07-11 00:00:00 18.5 5 Noroeste 9 Noroeste 0 -- -- 72
2020-07-10 23:00:00 20.9 4 Noroeste 9 Norte 0 -- -- 58
2020-07-10 22:00:00 22.7 4 Sudeste 12 Sudeste 0 -- -- 48
2020-07-10 21:00:00 24.6 4 Sur 19 Este 0 -- -- 41
2020-07-10 20:00:00 25 11 Nordeste 30 Este 0 -- -- 45
2020-07-10 19:00:00 25.8 18 Este 30 Este 0 -- -- 44
2020-07-10 18:00:00 25.2 14 Este 37 Nordeste 0 -- -- 46
2020-07-10 17:00:00 29 15 Nordeste 29 Nordeste 0 -- -- 34
2020-07-10 16:00:00 29.2 10 Noroeste 22 Este 0 -- -- 31
2020-07-10 15:00:00 29.8 13 Este 23 Este 0 -- -- 33
2020-07-10 14:00:00 29.1 10 Nordeste 21 Este 0 -- -- 34
2020-07-10 13:00:00 27.7 8 Nordeste 14 Nordeste 0 -- -- 33
2020-07-10 12:00:00 25.1 5 Norte 21 Norte 0 -- -- 46
2020-07-10 11:00:00 22.7 9 Nordeste 15 Norte 0 -- -- 56
2020-07-10 10:00:00 19.7 9 Nordeste 14 Nordeste 0 -- -- 70
2020-07-10 09:00:00 16.4 4 Norte 9 Nordeste 0 -- -- 78
2020-07-10 08:00:00 13.2 0 Calma 6 Sudeste 0 -- -- 84
2020-07-10 07:00:00 10.2 4 Sur 6 Sur 0 -- -- 95
2020-07-10 06:00:00 10.3 5 Norte 6 Norte 0 -- -- 94
2020-07-10 05:00:00 10.2 5 Norte 8 Norte 0 -- -- 94
2020-07-10 04:00:00 11.2 2 Oeste 6 Oeste 0 -- -- 90
2020-07-10 03:00:00 12.1 2 Nordeste 8 Oeste 0 -- -- 88
2020-07-10 02:00:00 12.7 5 Sudoeste 9 Sudoeste 0 -- -- 87
2020-07-10 01:00:00 13.8 3 Oeste 8 Oeste 0 -- -- 84
2020-07-10 00:00:00 14.8 2 Oeste 10 Nordeste 0 -- -- 85
2020-07-09 23:00:00 15.7 5 Nordeste 32 Nordeste 0 -- -- 80
2020-07-09 22:00:00 17.1 16 Noroeste 50 Noroeste 0.2 -- -- 70
2020-07-09 21:00:00 20.9 25 Oeste 51 Oeste 0 -- -- 55
2020-07-09 20:00:00 23.5 11 Noroeste 28 Norte 0 -- -- 44
2020-07-09 19:00:00 24.8 14 Nordeste 31 Norte 0 -- -- 40
2020-07-09 18:00:00 25.8 20 Norte 35 Norte 0 -- -- 42
2020-07-09 17:00:00 26.7 19 Nordeste 26 Nordeste 0 -- -- 44
2020-07-09 16:00:00 27.8 10 Norte 16 Nordeste 0 -- -- 37
2020-07-09 15:00:00 24.7 7 Norte 12 Norte 0 -- -- 48
2020-07-09 14:00:00 23.8 6 Noroeste 11 Norte 0.2 -- -- 53
2020-07-09 13:00:00 23.7 4 Este 14 Sur 0 -- -- 49
2020-07-09 12:00:00 24.5 3 Sudeste -- -- -- -- -- 46
2020-07-09 11:00:00 -- -- -- -- -- -- -- -- --
2020-07-09 10:00:00 -- -- -- -- -- -- -- -- --
2020-07-09 09:00:00 -- -- -- -- -- -- -- -- --
2020-07-09 08:00:00 -- -- -- -- -- -- -- -- --
2020-07-09 07:00:00 -- -- -- -- -- -- -- -- --
2020-07-09 06:00:00 -- -- -- -- -- -- -- -- --
2020-07-09 05:00:00 -- -- -- -- -- -- -- -- --
2020-07-09 04:00:00 -- -- -- -- -- -- -- -- --
2020-07-09 03:00:00 -- -- -- -- -- -- -- -- --
2020-07-09 02:00:00 -- -- -- -- -- -- -- -- --
2020-07-09 01:00:00 -- -- -- -- -- -- -- -- --
2020-07-09 00:00:00 -- -- -- -- -- -- -- -- --
2020-07-08 23:00:00 -- -- -- -- -- -- -- -- --
2020-07-08 22:00:00 -- -- -- -- -- -- -- -- --
2020-07-08 21:00:00 -- -- -- -- -- -- -- -- --
2020-07-08 20:00:00 -- -- -- -- -- -- -- -- --
2020-07-08 19:00:00 -- -- -- -- -- -- -- -- --
2020-07-08 18:00:00 25.1 19 Oeste 49 Oeste 0.2 -- -- 35
2020-07-08 17:00:00 31.5 12 Sudoeste 25 Sudeste 0 -- -- 23
2020-07-08 16:00:00 31.2 9 Sudoeste 19 Sudoeste 0 -- -- 25
2020-07-08 15:00:00 31.7 6 Sudoeste 19 Sur 0 -- -- 23
2020-07-08 14:00:00 32.5 5 Nordeste 14 Sudeste 0 -- -- 24
2020-07-08 13:00:00 30 12 Nordeste 31 Norte 0 -- -- 28
2020-07-08 12:00:00 27 21 Norte 35 Norte 0 -- -- 39
2020-07-08 11:00:00 24.2 8 Norte 26 Sudoeste 0 -- -- 51
2020-07-08 10:00:00 22.7 12 Sudoeste 27 Sudoeste 0 -- -- 54
2020-07-08 09:00:00 21.3 13 Sur 23 Sur 0 -- -- 67
2020-07-08 08:00:00 18.2 10 Sur 14 Sur 0 -- -- 81
2020-07-08 07:00:00 16.1 5 Sur 9 Sur 0 -- -- 85
2020-07-08 06:00:00 16.3 5 Sur 12 Sudoeste 0 -- -- 86
2020-07-08 05:00:00 17.4 6 Sudoeste 11 Sudoeste 0 -- -- 83
2020-07-08 04:00:00 17.7 4 Sudoeste 12 Sudoeste 0 -- -- 84
2020-07-08 03:00:00 18.7 5 Sur 9 Sur 0 -- -- 80
2020-07-08 02:00:00 20.1 5 Sudoeste 12 Sudoeste 0 -- -- 75
2020-07-08 01:00:00 21.2 6 Sudoeste 14 Sudoeste 0 -- -- 71
2020-07-08 00:00:00 20.3 5 Oeste 12 Oeste 0 -- -- 40
2020-07-07 23:00:00 22.6 5 Noroeste 13 Norte 0 -- -- 34
2020-07-07 22:00:00 24.9 3 Nordeste 17 Este 0 -- -- 30
2020-07-07 21:00:00 28.7 10 Este 21 Este 0 -- -- 27
2020-07-07 20:00:00 31.1 13 Este 21 Este 0 -- -- 25
2020-07-07 19:00:00 33 13 Nordeste 22 Norte 0 -- -- 23
2020-07-07 18:00:00 34 15 Nordeste 32 Nordeste 0 -- -- 24
2020-07-07 17:00:00 34.4 17 Nordeste 30 Nordeste 0 -- -- 24
2020-07-07 16:00:00 34.4 16 Nordeste 32 Nordeste 0 -- -- 24
2020-07-07 15:00:00 34.2 16 Nordeste 32 Nordeste 0 -- -- 23
2020-07-07 14:00:00 33.2 17 Norte 31 Norte 0 -- -- 24
2020-07-07 13:00:00 32.1 16 Nordeste 27 Norte 0 -- -- 25
2020-07-07 12:00:00 29.9 7 Este 15 Nordeste 0 -- -- 29
2020-07-07 11:00:00 26.3 5 Este 10 Nordeste 0 -- -- 36
2020-07-07 10:00:00 22.9 3 Este 7 Sur 0 -- -- 44
2020-07-07 09:00:00 19.1 5 Sur 9 Sur 0 -- -- 55
2020-07-07 08:00:00 15.8 5 Sur 9 Sur 0 -- -- 63
2020-07-07 07:00:00 12.4 0 Calma 2 Sur 0 -- -- 74
2020-07-07 06:00:00 13.1 0 Calma 4 Oeste 0 -- -- 69
2020-07-07 05:00:00 13.5 2 Noroeste 5 Norte 0 -- -- 68
2020-07-07 04:00:00 13.6 0 Calma 4 Nordeste 0 -- -- 70
2020-07-07 03:00:00 14.8 0 Calma 6 Sudoeste 0 -- -- 62
2020-07-07 02:00:00 15.4 4 Sur 7 Nordeste 0 -- -- 61
2020-07-07 01:00:00 17 7 Norte 17 Norte 0 -- -- 54
2020-07-07 00:00:00 17.7 8 Norte 21 Norte 0 -- -- 54
2020-07-06 23:00:00 19.5 13 Norte 25 Norte 0 -- -- 50
2020-07-06 22:00:00 21.1 17 Norte 31 Norte 0 -- -- 50
2020-07-06 21:00:00 24.9 20 Norte 32 Norte 0 -- -- 44
2020-07-06 20:00:00 27.3 22 Norte 34 Norte 0 -- -- 38
2020-07-06 19:00:00 28.9 21 Norte 36 Norte 0 -- -- 37
2020-07-06 18:00:00 30.5 21 Norte 37 Norte 0 -- -- 34
2020-07-06 17:00:00 31.9 18 Nordeste 37 Norte 0 -- -- 32
2020-07-06 16:00:00 32.2 15 Nordeste 33 Nordeste 0 -- -- 29
2020-07-06 15:00:00 31.8 19 Nordeste 35 Nordeste 0 -- -- 30
2020-07-06 14:00:00 30.9 18 Nordeste 31 Nordeste 0 -- -- 32
2020-07-06 13:00:00 29.8 16 Norte 26 Norte 0 -- -- 33
2020-07-06 12:00:00 28.3 16 Nordeste 25 Norte 0 -- -- 37
2020-07-06 11:00:00 26.8 12 Nordeste 26 Norte 0 -- -- 42
2020-07-06 10:00:00 24.7 10 Nordeste 19 Norte 0 -- -- 44
2020-07-06 09:00:00 21.3 6 Nordeste 10 Norte 0 -- -- 53
2020-07-06 08:00:00 17.8 0 Calma 2 Norte 0 -- -- 61
2020-07-06 07:00:00 13.7 0 Calma 4 Oeste 0 -- -- 77
2020-07-06 06:00:00 13.7 0 Calma 4 Oeste 0 -- -- 75
2020-07-06 05:00:00 14.5 0 Calma 5 Oeste 0 -- -- 69
2020-07-06 04:00:00 14.5 3 Oeste 5 Oeste 0 -- -- 65
2020-07-06 03:00:00 16.3 0 Calma 3 Norte 0 -- -- 60
2020-07-06 02:00:00 17.5 3 Noroeste 10 Norte 0 -- -- 54
2020-07-06 01:00:00 18.9 4 Noroeste 11 Oeste 0 -- -- 50
2020-07-06 00:00:00 20.6 3 Noroeste 12 Noroeste 0 -- -- 44
2020-07-05 23:00:00 21.2 7 Nordeste 11 Nordeste 0 -- -- 39
2020-07-05 22:00:00 23.8 4 Nordeste 17 Este 0 -- -- 34
2020-07-05 21:00:00 28.1 11 Este 26 Este 0 -- -- 29
2020-07-05 20:00:00 31.3 17 Nordeste 28 Nordeste 0 -- -- 23
2020-07-05 19:00:00 32.9 12 Norte 23 Nordeste 0 -- -- 19
2020-07-05 18:00:00 33.4 14 Norte 28 Norte 0 -- -- 18
2020-07-05 17:00:00 33.3 13 Nordeste 26 Nordeste 0 -- -- 18
2020-07-05 16:00:00 32.4 8 Este 23 Nordeste 0 -- -- 19
2020-07-05 15:00:00 31.6 11 Sudeste 26 Nordeste 0 -- -- 20
2020-07-05 14:00:00 31.6 12 Nordeste 22 Nordeste 0 -- -- 20
2020-07-05 13:00:00 29.7 10 Este 23 Nordeste 0 -- -- 21
2020-07-05 12:00:00 28.1 6 Este 14 Norte 0 -- -- 23
2020-07-05 11:00:00 25.5 6 Este 10 Este 0 -- -- 30
2020-07-05 10:00:00 21.9 4 Sudoeste 12 Sur 0 -- -- 37
2020-07-05 09:00:00 17.5 8 Sur 14 Sur 0 -- -- 44
2020-07-05 08:00:00 13.5 8 Sur 12 Sur 0 -- -- 53
2020-07-05 07:00:00 10.5 6 Sur 12 Sudoeste 0 -- -- 62
2020-07-05 06:00:00 12 10 Sudoeste 13 Sudoeste 0 -- -- 58
2020-07-05 05:00:00 11.4 3 Oeste 6 Noroeste 0 -- -- 62
2020-07-05 04:00:00 11.4 0 Calma 5 Noroeste 0 -- -- 59
2020-07-05 03:00:00 12.7 3 Sur 9 Norte 0 -- -- 53
2020-07-05 02:00:00 13.8 4 Noroeste 8 Noroeste 0 -- -- 49
2020-07-05 01:00:00 15 2 Sur 11 Noroeste 0 -- -- 45
2020-07-05 00:00:00 17.6 5 Noroeste 12 Noroeste 0 -- -- 38
2020-07-04 23:00:00 17.9 9 Norte 12 Nordeste 0 -- -- 36
2020-07-04 22:00:00 20.8 8 Nordeste 17 Norte 0 -- -- 30
2020-07-04 21:00:00 26.5 10 Norte 20 Nordeste 0 -- -- 21
2020-07-04 20:00:00 28.7 12 Nordeste 29 Nordeste 0 -- -- 17
2020-07-04 19:00:00 29.4 15 Nordeste 35 Nordeste 0 -- -- 15
2020-07-04 18:00:00 30.6 19 Nordeste 31 Nordeste 0 -- -- 14
2020-07-04 17:00:00 30.9 17 Nordeste 34 Nordeste 0 -- -- 16
2020-07-04 16:00:00 31.2 19 Norte 37 Nordeste 0 -- -- 18
2020-07-04 15:00:00 31.1 20 Nordeste 39 Nordeste 0 -- -- 18
2020-07-04 14:00:00 29.2 15 Nordeste 30 Nordeste 0 -- -- 20
2020-07-04 13:00:00 27 8 Nordeste 24 Este 0 -- -- 28
2020-07-04 12:00:00 25.3 11 Este 20 Este 0 -- -- 34
2020-07-04 11:00:00 23.5 9 Nordeste 17 Norte 0 -- -- 39
2020-07-04 10:00:00 20.4 6 Nordeste 11 Nordeste 0 -- -- 48
2020-07-04 09:00:00 16.7 3 Este 6 Este 0 -- -- 59
2020-07-04 08:00:00 14.5 0 Calma 6 Norte 0 -- -- 66
2020-07-04 07:00:00 10 6 Noroeste 8 Noroeste 0 -- -- 82
2020-07-04 06:00:00 10 0 Calma 2 Sur 0 -- -- 81
2020-07-04 05:00:00 9.7 0 Calma 10 Norte 0 -- -- 82
2020-07-04 04:00:00 10.6 9 Norte 13 Norte 0 -- -- 79
2020-07-04 03:00:00 12 7 Nordeste 14 Norte 0 -- -- 73
2020-07-04 02:00:00 12.6 7 Nordeste 12 Nordeste 0 -- -- 71
2020-07-04 01:00:00 13.5 8 Nordeste 11 Nordeste 0 -- -- 68
2020-07-04 00:00:00 15.2 4 Noroeste 6 Sudoeste 0 -- -- 60
2020-07-03 23:00:00 17.5 6 Norte 14 Norte 0 -- -- 52
2020-07-03 22:00:00 19.5 9 Nordeste 25 Norte 0 -- -- 47
2020-07-03 21:00:00 23.1 18 Norte 28 Norte 0 -- -- 40
2020-07-03 20:00:00 25.8 21 Norte 29 Norte 0 -- -- 35
2020-07-03 19:00:00 27.5 20 Norte 31 Nordeste 0 -- -- 33
2020-07-03 18:00:00 28.5 13 Nordeste 28 Norte 0 -- -- 31
2020-07-03 17:00:00 28.6 13 Norte 28 Nordeste 0 -- -- 32
2020-07-03 16:00:00 27 8 Noroeste 27 Nordeste 0 -- -- 35
2020-07-03 15:00:00 26.4 10 Nordeste 23 Norte 0 -- -- 36
2020-07-03 14:00:00 25.3 9 Norte 21 Nordeste 0 -- -- 38
2020-07-03 13:00:00 22 9 Este 18 Norte 0 -- -- 48
2020-07-03 12:00:00 20.5 9 Norte 22 Norte 0 -- -- 50
2020-07-03 11:00:00 18.2 17 Norte 28 Norte 0 -- -- 51
2020-07-03 10:00:00 16 16 Norte 27 Norte 0 -- -- 57
2020-07-03 09:00:00 14.8 16 Norte 26 Norte 0 -- -- 63
2020-07-03 08:00:00 13.9 15 Norte 25 Norte 0 -- -- 68
2020-07-03 07:00:00 13.4 17 Norte 31 Norte 0 -- -- 72
2020-07-03 06:00:00 13.3 20 Norte 31 Norte 0 -- -- 72
2020-07-03 05:00:00 13.2 19 Norte 31 Norte 0 -- -- 74
2020-07-03 04:00:00 13.4 20 Norte 37 Norte 0 -- -- 75
2020-07-03 03:00:00 13.7 23 Norte 39 Norte 0 -- -- 74
2020-07-03 02:00:00 13.4 22 Norte 34 Norte 0 -- -- 78
2020-07-03 01:00:00 13.7 17 Norte 31 Norte 0 -- -- 79
2020-07-03 00:00:00 14.6 22 Norte 33 Norte 0 -- -- 77
2020-07-02 23:00:00 16.6 21 Norte 38 Norte 0 -- -- 72
2020-07-02 22:00:00 18.8 24 Norte 43 Norte 0 -- -- 65
2020-07-02 21:00:00 24.5 21 Norte 31 Norte 0 -- -- 48
2020-07-02 20:00:00 29.4 11 Oeste 29 Oeste 0 -- -- 18
2020-07-02 19:00:00 30.5 13 Oeste 31 Noroeste 0 -- -- 17
2020-07-02 18:00:00 31.4 14 Oeste 37 Noroeste 0 -- -- 17
2020-07-02 17:00:00 31.2 15 Noroeste 37 Noroeste 0 -- -- 18
2020-07-02 16:00:00 31.6 12 Noroeste 37 Noroeste 0 -- -- 18
2020-07-02 15:00:00 31 16 Oeste 35 Noroeste 0 -- -- 20
2020-07-02 14:00:00 30.8 16 Noroeste 33 Noroeste 0 -- -- 22
2020-07-02 13:00:00 29.2 11 Oeste 32 Oeste 0 -- -- 25
2020-07-02 12:00:00 28.9 6 Este 17 Este 0 -- -- 32
2020-07-02 11:00:00 25.9 6 Nordeste 15 Este 0 -- -- 44
2020-07-02 10:00:00 22.9 6 Nordeste 13 Nordeste 0 -- -- 60
2020-07-02 09:00:00 19.9 2 Este 6 Sudeste 0 -- -- 69
2020-07-02 08:00:00 17.2 0 Calma 8 Sur 0 -- -- 74
2020-07-02 07:00:00 12.4 3 Sudoeste 8 Sudeste 0 -- -- 88
2020-07-02 06:00:00 13.9 3 Sur 6 Sudoeste 0 -- -- 91
2020-07-02 05:00:00 14.7 5 Norte 14 Norte 0 -- -- 90
2020-07-02 04:00:00 14.5 6 Norte 10 Norte 0 -- -- 89
2020-07-02 03:00:00 15.5 3 Norte 9 Nordeste 0 -- -- 86
2020-07-02 02:00:00 17.2 5 Norte 9 Norte 0 -- -- 74
2020-07-02 01:00:00 18.3 4 Noroeste 7 Noroeste 0 -- -- 72
2020-07-02 00:00:00 19.6 6 Este 12 Norte 0 -- -- 69
2020-07-01 23:00:00 22.2 9 Noroeste 20 Norte 0 -- -- 38
2020-07-01 22:00:00 25.2 9 Noroeste 19 Noroeste 0 -- -- 28
2020-07-01 21:00:00 29.8 10 Noroeste 27 Oeste 0 -- -- 21
2020-07-01 20:00:00 31.6 14 Noroeste 32 Noroeste 0 -- -- 18
2020-07-01 19:00:00 32.8 15 Noroeste 37 Noroeste 0 -- -- 17
2020-07-01 18:00:00 32.5 14 Oeste 37 Noroeste 0 -- -- 19
2020-07-01 17:00:00 32.4 14 Noroeste 39 Noroeste 0 -- -- 18
2020-07-01 16:00:00 32.8 14 Oeste 38 Noroeste 0 -- -- 18
2020-07-01 15:00:00 32 15 Noroeste 38 Norte 0 -- -- 20
2020-07-01 14:00:00 31.4 14 Noroeste 38 Oeste 0 -- -- 20
2020-07-01 13:00:00 30.3 24 Noroeste 37 Noroeste 0 -- -- 18
2020-07-01 12:00:00 30.6 14 Oeste 40 Oeste 0 -- -- 24
2020-07-01 11:00:00 28.9 5 Este 15 Oeste 0 -- -- 32
2020-07-01 10:00:00 25.3 6 Sur 12 Sur 0 -- -- 45
2020-07-01 09:00:00 21.6 7 Sur 12 Sur 0 -- -- 56
2020-07-01 08:00:00 18 7 Sur 14 Sudoeste 0 -- -- 69
2020-07-01 07:00:00 15.6 10 Sudoeste 15 Sudoeste 0 -- -- 79
2020-07-01 06:00:00 15.7 6 Sudoeste 13 Sur 0 -- -- 80
2020-07-01 05:00:00 15.9 2 Sur 18 Sur 0 -- -- 81
2020-07-01 04:00:00 17.4 7 Sur 19 Sur 0 -- -- 76
2020-07-01 03:00:00 17.9 8 Sur 19 Sur 0 -- -- 75
2020-07-01 02:00:00 18.4 10 Sur 20 Sudoeste 0 -- -- 74
2020-07-01 01:00:00 19.8 13 Sudoeste 21 Sudoeste 0 -- -- 69
2020-07-01 00:00:00 21.1 14 Sur 26 Sur 0 -- -- 64
2020-06-30 23:00:00 23.4 18 Sur 30 Sur 0 -- -- 57
2020-06-30 22:00:00 25 20 Sur 35 Sur 0 -- -- 51
2020-06-30 21:00:00 28.3 19 Sudoeste 43 Sudoeste 0 -- -- 41
2020-06-30 20:00:00 30.2 25 Sudoeste 45 Sur 0 -- -- 36
2020-06-30 19:00:00 31.5 28 Sudoeste 45 Sur 0 -- -- 33
2020-06-30 18:00:00 32.3 28 Sur 46 Sur 0 -- -- 31
2020-06-30 17:00:00 32.6 33 Sur 48 Sur 0 -- -- 29
2020-06-30 16:00:00 32.9 30 Sur 50 Sur 0 -- -- 28
2020-06-30 15:00:00 33.5 28 Sur 51 Sudoeste 0 -- -- 27
2020-06-30 14:00:00 34.2 22 Sudoeste 42 Sur 0 -- -- 22
2020-06-30 13:00:00 31.8 22 Sur 38 Sur 0 -- -- 26
2020-06-30 12:00:00 29.7 21 Sur 30 Sur 0 -- -- 32
2020-06-30 11:00:00 26.8 14 Sur 25 Sur 0 -- -- 37
2020-06-30 10:00:00 24.2 12 Sur 24 Sur 0 -- -- 46
2020-06-30 09:00:00 19.9 12 Sur 19 Sur 0 -- -- 69
2020-06-30 08:00:00 17.4 10 Sudoeste 18 Sur 0 -- -- 78
2020-06-30 07:00:00 14.8 9 Sudoeste 16 Sur 0 -- -- 88
2020-06-30 06:00:00 14.9 6 Sudoeste 9 Sudoeste 0 -- -- 89
2020-06-30 05:00:00 15.9 8 Sudoeste 13 Sudoeste 0 -- -- 87
2020-06-30 04:00:00 16.7 8 Sudoeste 12 Sur 0 -- -- 88
2020-06-30 03:00:00 17.2 8 Sur 18 Sudoeste 0 -- -- 89
2020-06-30 02:00:00 18.1 10 Sur 16 Sur 0 -- -- 87
2020-06-30 01:00:00 19.1 10 Sudoeste 14 Sudoeste 0 -- -- 84
2020-06-30 00:00:00 20.3 9 Sudoeste 19 Sudoeste 0 -- -- 79
2020-06-29 23:00:00 21.9 13 Sudoeste 19 Sudoeste 0 -- -- 73
2020-06-29 22:00:00 24.2 10 Sudoeste 15 Sur 0 -- -- 63
2020-06-29 21:00:00 27.8 8 Sudeste 31 Sudeste 0 -- -- 51
2020-06-29 20:00:00 28.9 14 Este 28 Este 0 -- -- 46
2020-06-29 19:00:00 29.3 18 Este 30 Este 0 -- -- 43
2020-06-29 18:00:00 33.4 11 Noroeste 22 Noroeste 0 -- -- 23
2020-06-29 17:00:00 33.4 6 Oeste 22 Sudoeste 0 -- -- 23
2020-06-29 16:00:00 33.8 12 Noroeste 26 Norte 0 -- -- 22
2020-06-29 15:00:00 31.8 5 Nordeste 19 Norte 0 -- -- 30
2020-06-29 14:00:00 30.5 5 Este 15 Norte 0 -- -- 35
2020-06-29 13:00:00 30.6 9 Nordeste 21 Nordeste 0 -- -- 38
2020-06-29 12:00:00 27.1 6 Norte 16 Norte 0 -- -- 46
2020-06-29 11:00:00 24.7 8 Nordeste 18 Nordeste 0 -- -- 55
2020-06-29 10:00:00 22.1 10 Nordeste 15 Nordeste 0 -- -- 62
2020-06-29 09:00:00 19.6 9 Nordeste 14 Norte 0 -- -- 72
2020-06-29 08:00:00 16.9 4 Norte 8 Nordeste 0 -- -- 83
2020-06-29 07:00:00 13.7 3 Oeste 6 Noroeste 0 -- -- 93
2020-06-29 06:00:00 13.8 0 Calma 6 Nordeste 0 -- -- 94
2020-06-29 05:00:00 14.8 0 Calma 8 Noroeste 0 -- -- 91
2020-06-29 04:00:00 15.9 0 Calma 10 Sudoeste 0 -- -- 87
2020-06-29 03:00:00 16.4 4 Sudoeste 8 Oeste 0 -- -- 87
2020-06-29 02:00:00 17.6 6 Sur 13 Sudoeste 0 -- -- 83
2020-06-29 01:00:00 19 12 Sudoeste 17 Sudoeste 0 -- -- 79
2020-06-29 00:00:00 20.4 12 Sudoeste 18 Sudoeste 0 -- -- 72
2020-06-28 23:00:00 22.1 6 Sudoeste 11 Sur 0 -- -- 65
2020-06-28 22:00:00 24.6 5 Sur 23 Sudeste 0 -- -- 56
2020-06-28 21:00:00 26.4 12 Este 21 Sudeste 0 -- -- 49
2020-06-28 20:00:00 27.4 15 Este 26 Nordeste 0 -- -- 45
2020-06-28 19:00:00 29.3 6 Nordeste 17 Nordeste 0 -- -- 30
2020-06-28 18:00:00 31.6 9 Nordeste 25 Norte 0 -- -- 28
2020-06-28 17:00:00 31.3 6 Este 20 Este 0 -- -- 28
2020-06-28 16:00:00 29.8 6 Sudoeste 15 Noroeste 0 -- -- 31
2020-06-28 15:00:00 30.6 10 Norte 22 Noroeste 0 -- -- 30
2020-06-28 14:00:00 31.5 8 Norte 24 Norte 0 -- -- 31
2020-06-28 13:00:00 29.1 12 Este 22 Este 0 -- -- 36
2020-06-28 12:00:00 28.2 5 Nordeste 11 Este 0 -- -- 35
2020-06-28 11:00:00 26.1 6 Nordeste 10 Sudeste 0 -- -- 39
2020-06-28 10:00:00 23.1 3 Sudoeste 9 Sudeste 0 -- -- 46
2020-06-28 09:00:00 20.3 4 Sur 10 Sur 0 -- -- 56
2020-06-28 08:00:00 17.8 2 Sur 10 Sur 0 -- -- 63
2020-06-28 07:00:00 14.5 7 Sudoeste 11 Sudoeste 0 -- -- 75
2020-06-28 06:00:00 13.8 5 Sudoeste 11 Sur 0 -- -- 83
2020-06-28 05:00:00 14.3 9 Sur 14 Sur 0 -- -- 79
2020-06-28 04:00:00 14.7 6 Sudoeste 10 Sur 0 -- -- 81
2020-06-28 03:00:00 15.7 6 Sur 10 Sur 0 -- -- 79
2020-06-28 02:00:00 17.8 6 Sudoeste 13 Sudoeste 0 -- -- 70
2020-06-28 01:00:00 18.4 9 Sudoeste 14 Sudoeste 0 -- -- 66
2020-06-28 00:00:00 19.2 10 Sudoeste 14 Sudoeste 0 -- -- 64
2020-06-27 23:00:00 20.9 6 Sudoeste 14 Sudoeste 0 -- -- 59
2020-06-27 22:00:00 23.8 9 Sudoeste 15 Sudeste 0 -- -- 49
2020-06-27 21:00:00 26.5 10 Sudeste 18 Sudeste 0 -- -- 38
2020-06-27 20:00:00 28.8 11 Nordeste 19 Norte 0 -- -- 30
2020-06-27 19:00:00 28.9 7 Norte 13 Nordeste 0 -- -- 30
2020-06-27 18:00:00 29.6 7 Este 21 Este 0 -- -- 28
2020-06-27 17:00:00 29.9 8 Sur 26 Este 0 -- -- 28
2020-06-27 16:00:00 29 7 Sudoeste 23 Norte 0 -- -- 29
2020-06-27 15:00:00 28.5 8 Norte 23 Este 0 -- -- 31
2020-06-27 14:00:00 27 8 Este 22 Nordeste 0 -- -- 34
2020-06-27 13:00:00 26.6 5 Este 17 Norte 0 -- -- 35
2020-06-27 12:00:00 25.8 8 Nordeste 21 Norte 0 -- -- 36
2020-06-27 11:00:00 23.6 10 Nordeste 20 Nordeste 0 -- -- 43
2020-06-27 10:00:00 22.1 9 Nordeste 18 Nordeste 0 -- -- 46
2020-06-27 09:00:00 18.3 0 Calma 5 Sur 0 -- -- 53
2020-06-27 08:00:00 15.2 3 Este 6 Este 0 -- -- 71
2020-06-27 07:00:00 11.8 0 Calma 4 Nordeste 0 -- -- 83
2020-06-27 06:00:00 12.1 0 Calma 8 Sur 0 -- -- 82
2020-06-27 05:00:00 13.5 3 Sur 8 Sudoeste 0 -- -- 76
2020-06-27 04:00:00 14.2 5 Sudoeste 12 Sudoeste 0 -- -- 73
2020-06-27 03:00:00 15.8 8 Sudoeste 16 Sudoeste 0 -- -- 66
2020-06-27 02:00:00 16.7 9 Sudoeste 15 Sudoeste 0 -- -- 62
2020-06-27 01:00:00 18.4 9 Sur 17 Sur 0 -- -- 57
2020-06-27 00:00:00 19.6 13 Sur 25 Sudoeste 0 -- -- 54
2020-06-26 23:00:00 20.8 15 Sur 26 Sur 0 -- -- 51
2020-06-26 22:00:00 22.1 11 Sur 33 Sur 0 -- -- 45
2020-06-26 21:00:00 23.9 13 Sudoeste 27 Sur 0 -- -- 43
2020-06-26 20:00:00 27.5 14 Sur 31 Oeste 0 -- -- 36
2020-06-26 19:00:00 29.4 21 Oeste 40 Sudoeste 0 -- -- 27
2020-06-26 18:00:00 29.1 21 Sudoeste 38 Sudoeste 0 -- -- 30
2020-06-26 17:00:00 30 24 Sudoeste 43 Sudoeste 0 -- -- 28
2020-06-26 16:00:00 29.3 22 Sur 37 Sur 0 -- -- 33
2020-06-26 15:00:00 28.3 21 Sur 40 Sudoeste 0 -- -- 35
2020-06-26 14:00:00 27.9 23 Sur 42 Sur 0 -- -- 34
2020-06-26 13:00:00 26.6 27 Sur 45 Sur 0 -- -- 36
2020-06-26 12:00:00 25.2 26 Sur 39 Sur 0 -- -- 37
2020-06-26 11:00:00 24.3 23 Sur 35 Sur 0 -- -- 37
2020-06-26 10:00:00 21.9 19 Sur 29 Sur 0 -- -- 42
2020-06-26 09:00:00 18.4 15 Sur 22 Sur 0 -- -- 56
2020-06-26 08:00:00 14.2 10 Sudoeste 18 Sudoeste 0 -- -- 71
2020-06-26 07:00:00 13.4 9 Sur 19 Sur 0 -- -- 73
2020-06-26 06:00:00 12.8 6 Sudoeste 13 Sur 0 -- -- 75
2020-06-26 05:00:00 13.3 8 Sudoeste 17 Sur 0 -- -- 73
2020-06-26 04:00:00 15 10 Sudoeste 17 Sudoeste 0 -- -- 67
2020-06-26 03:00:00 15.1 10 Sudoeste 15 Sudoeste 0 -- -- 69
2020-06-26 02:00:00 15.8 5 Sur 8 Sur 0 -- -- 69
2020-06-26 01:00:00 16.8 2 Sudoeste 17 Norte 0 -- -- 65
2020-06-26 00:00:00 17.9 11 Sudoeste 22 Sur 0 -- -- 62
2020-06-25 23:00:00 19.5 15 Sur 27 Sur 0 -- -- 57
2020-06-25 22:00:00 21.3 20 Sur 32 Sur 0 -- -- 51
2020-06-25 21:00:00 24.3 18 Sur 32 Sur 0 -- -- 43
2020-06-25 20:00:00 27.1 24 Sur 41 Sur 0 -- -- 33
2020-06-25 19:00:00 29.3 29 Sur 46 Sur 0 -- -- 28
2020-06-25 18:00:00 30.4 28 Sudoeste 45 Sur 0 -- -- 26
2020-06-25 17:00:00 31.1 27 Sur 40 Sur 0 -- -- 26
2020-06-25 16:00:00 31.4 21 Sur 35 Sur 0 -- -- 24
2020-06-25 15:00:00 31.1 21 Sur 36 Sur 0 -- -- 27
2020-06-25 14:00:00 29.9 21 Sur 37 Sur 0 -- -- 28
2020-06-25 13:00:00 29 20 Sur 32 Sur 0 -- -- 33
2020-06-25 12:00:00 27.6 17 Sur 29 Sur 0 -- -- 35
2020-06-25 11:00:00 25.1 14 Sur 21 Sur 0 -- -- 47
2020-06-25 10:00:00 22.2 9 Sur 14 Sudeste 0 -- -- 52
2020-06-25 09:00:00 18.1 8 Sur 12 Sudeste 0 -- -- 74
2020-06-25 08:00:00 14.8 6 Sur 12 Sudoeste 0 -- -- 87
2020-06-25 07:00:00 12.3 9 Sudoeste 12 Sudoeste 0 -- -- 94
2020-06-25 06:00:00 12.3 6 Sur 12 Sur 0 -- -- 94
2020-06-25 05:00:00 13 4 Sur 21 Sur 0 -- -- 93
2020-06-25 04:00:00 13.9 8 Sur 19 Sur 0 -- -- 90
2020-06-25 03:00:00 14.5 6 Sudoeste 20 Sudoeste 0 -- -- 88
2020-06-25 02:00:00 16.2 7 Sudoeste 14 Sudoeste 0 -- -- 78
2020-06-25 01:00:00 17.4 6 Sudoeste 12 Sur 0 -- -- 76
2020-06-25 00:00:00 17.2 6 Sudeste 15 Este 0 -- -- 81
2020-06-24 23:00:00 17.9 3 Oeste 8 Sudoeste 0 -- -- 78
2020-06-24 22:00:00 18.9 3 Sur 5 Sudeste 0 -- -- 71
2020-06-24 21:00:00 21.9 2 Sudoeste 10 Sudoeste 0 -- -- 58
2020-06-24 20:00:00 21.6 8 Sudoeste 28 Este 0 -- -- 53
2020-06-24 19:00:00 21.9 15 Este 34 Este 0 -- -- 50
2020-06-24 18:00:00 21.7 19 Este 36 Este 0 -- -- 58
2020-06-24 17:00:00 22.5 13 Norte 23 Norte 0 -- -- 57
2020-06-24 16:00:00 20.7 8 Nordeste 27 Sudoeste 0.2 -- -- 66
2020-06-24 15:00:00 18.5 22 Sudoeste 53 Sudoeste 3.4 -- -- 67
2020-06-24 14:00:00 20.8 16 Noroeste 38 Noroeste 1 -- -- 69
2020-06-24 13:00:00 30.1 6 Este 13 Sudoeste 0 -- -- 34
2020-06-24 12:00:00 29 8 Sur 15 Sur 0 -- -- 31
2020-06-24 11:00:00 26.5 6 Sur 13 Sudoeste 0 -- -- 39
2020-06-24 10:00:00 22.4 9 Sudoeste 16 Sudoeste 0 -- -- 47
2020-06-24 09:00:00 19.4 10 Sudoeste 18 Sur 0 -- -- 61
2020-06-24 08:00:00 15.7 10 Sudoeste 18 Sur 0 -- -- 83
2020-06-24 07:00:00 13.5 9 Sudoeste 14 Sur 0 -- -- 89
2020-06-24 06:00:00 14 8 Sudoeste 12 Sudoeste 0 -- -- 88
2020-06-24 05:00:00 14.3 6 Sudoeste 15 Sudoeste 0 -- -- 88
2020-06-24 04:00:00 15 7 Sudoeste 12 Oeste 0 -- -- 86
2020-06-24 03:00:00 15.3 6 Sudoeste 15 Sudoeste 0 -- -- 87
2020-06-24 02:00:00 16.1 10 Sudoeste 16 Sudoeste 0 -- -- 85
2020-06-24 01:00:00 17.3 10 Sur 15 Sur 0 -- -- 81
2020-06-24 00:00:00 17.6 0 Calma 16 Sudoeste 0 -- -- 85
2020-06-23 23:00:00 19.1 12 Sudoeste 19 Sudoeste 0 -- -- 76
2020-06-23 22:00:00 20.9 9 Sudoeste 24 Oeste 0 -- -- 71
2020-06-23 21:00:00 20 9 Sudeste 33 Sudeste 3.4 -- -- 73
2020-06-23 20:00:00 23.1 25 Sudeste 51 Sudeste 0 -- -- 53
2020-06-23 19:00:00 30 9 Sur 31 Sur 0 -- -- 30
2020-06-23 18:00:00 32 18 Sudoeste 27 Sudoeste 0 -- -- 26
2020-06-23 17:00:00 32.9 6 Sur 26 Sur 0 -- -- 25
2020-06-23 16:00:00 31.7 10 Sudeste 30 Sur 0 -- -- 26
2020-06-23 15:00:00 31.7 16 Sudoeste 29 Sur 0 -- -- 27
2020-06-23 14:00:00 30.9 13 Sur 28 Sur 0 -- -- 28
2020-06-23 13:00:00 29.5 17 Sur 28 Sur 0 -- -- 31
2020-06-23 12:00:00 27.6 15 Sur 28 Sudeste 0 -- -- 38
2020-06-23 11:00:00 24.7 15 Sur 24 Sur 0 -- -- 46
2020-06-23 10:00:00 22.5 13 Sur 22 Sur 0 -- -- 53
2020-06-23 09:00:00 19.5 12 Sur 18 Sur 0 -- -- 64
2020-06-23 08:00:00 15.6 6 Sudoeste 12 Sur 0 -- -- 80
2020-06-23 07:00:00 13.5 6 Sudoeste 12 Sudoeste 0 -- -- 87
2020-06-23 06:00:00 14.2 9 Sudoeste 13 Sudoeste 0 -- -- 84
2020-06-23 05:00:00 14.2 9 Sudoeste 12 Sudoeste 0 -- -- 84
2020-06-23 04:00:00 15.1 6 Sudoeste 9 Sudoeste 0 -- -- 81
2020-06-23 03:00:00 15.8 4 Sudoeste 6 Sur 0 -- -- 80
2020-06-23 02:00:00 16.5 2 Sur 7 Sudoeste 0 -- -- 79
2020-06-23 01:00:00 18.3 5 Sudoeste 14 Sudoeste 0 -- -- 73
2020-06-23 00:00:00 19.1 6 Sudoeste 14 Sudoeste 0 -- -- 69
2020-06-22 23:00:00 20.4 10 Sudoeste 15 Sudoeste 0 -- -- 64
2020-06-22 22:00:00 23.4 3 Oeste 17 Este 0 -- -- 51
2020-06-22 21:00:00 26.5 10 Este 21 Este 0 -- -- 37
2020-06-22 20:00:00 29.8 12 Norte 23 Norte 0 -- -- 29
2020-06-22 19:00:00 30.3 9 Nordeste 24 Norte 0 -- -- 28
2020-06-22 18:00:00 31.4 10 Norte 24 Norte 0 -- -- 28
2020-06-22 17:00:00 31.5 12 Nordeste 24 Nordeste 0 -- -- 27
2020-06-22 16:00:00 30.6 10 Nordeste 27 Norte 0 -- -- 29
2020-06-22 15:00:00 30.4 12 Norte 22 Norte 0 -- -- 31
2020-06-22 14:00:00 28.8 11 Norte 22 Norte 0 -- -- 34
2020-06-22 13:00:00 26.4 9 Este 20 Nordeste 0 -- -- 40
2020-06-22 12:00:00 24.6 6 Este 15 Nordeste 0 -- -- 42
2020-06-22 11:00:00 23.2 4 Nordeste 15 Norte 0 -- -- 46
2020-06-22 10:00:00 21.1 7 Norte 16 Norte 0 -- -- 52
2020-06-22 09:00:00 18.2 3 Este 9 Este 0 -- -- 60
2020-06-22 08:00:00 15.6 0 Calma 4 Noroeste 0 -- -- 65
2020-06-22 07:00:00 11.1 2 Noroeste 8 Noroeste 0 -- -- 82
2020-06-22 06:00:00 11.9 2 Norte 12 Noroeste 0 -- -- 77
2020-06-22 05:00:00 13.5 8 Noroeste 19 Norte 0 -- -- 70
2020-06-22 04:00:00 14.9 14 Norte 21 Norte 0 -- -- 62
2020-06-22 03:00:00 15.7 14 Norte 27 Norte 0 -- -- 58
2020-06-22 02:00:00 16.5 18 Norte 27 Norte 0 -- -- 58
2020-06-22 01:00:00 17.4 16 Norte 24 Norte 0 -- -- 54
2020-06-22 00:00:00 18.3 16 Norte 25 Norte 0 -- -- 52
2020-06-21 23:00:00 19.3 14 Norte 26 Norte 0 -- -- 53
2020-06-21 22:00:00 21.7 15 Norte 23 Norte 0 -- -- 45
2020-06-21 21:00:00 25.9 10 Nordeste 29 Norte 0 -- -- 32
2020-06-21 20:00:00 28.4 18 Nordeste 35 Nordeste 0 -- -- 26
2020-06-21 19:00:00 29.7 21 Nordeste 35 Norte 0 -- -- 25
2020-06-21 18:00:00 30.5 19 Norte 35 Nordeste 0 -- -- 25
2020-06-21 17:00:00 31 13 Norte 33 Nordeste 0 -- -- 26
2020-06-21 16:00:00 31.3 17 Nordeste 48 Norte 0 -- -- 26
2020-06-21 15:00:00 30.4 18 Norte 35 Nordeste 0 -- -- 22
2020-06-21 14:00:00 29.5 14 Nordeste 29 Nordeste 0 -- -- 31
2020-06-21 13:00:00 28.6 15 Nordeste 27 Este 0 -- -- 33
2020-06-21 12:00:00 27.7 10 Nordeste 19 Nordeste 0 -- -- 35
2020-06-21 11:00:00 24.9 6 Nordeste 12 Nordeste 0 -- -- 50
2020-06-21 10:00:00 21.2 4 Sudeste 7 Sudeste 0 -- -- 58
2020-06-21 09:00:00 18.7 0 Calma 4 Sur 0 -- -- 62
2020-06-21 08:00:00 14.4 0 Calma 2 Sudeste 0 -- -- 72
2020-06-21 07:00:00 10.3 0 Calma -- -- 0 -- -- 85
2020-06-21 06:00:00 10.2 0 Calma -- -- 0 -- -- 84
2020-06-21 05:00:00 11 0 Calma 7 Oeste 0 -- -- 86
2020-06-21 04:00:00 11.5 0 Calma 5 Sur 0 -- -- 80
2020-06-21 03:00:00 13.2 0 Calma 6 Oeste 0 -- -- 72
2020-06-21 02:00:00 13.5 0 Calma 2 Sudoeste 0 -- -- 71
2020-06-21 01:00:00 15.6 2 Sur 9 Este 0 -- -- 57
2020-06-21 00:00:00 18.1 9 Noroeste 16 Noroeste 0 -- -- 47
2020-06-20 23:00:00 20 13 Noroeste 21 Noroeste 0 -- -- 39
2020-06-20 22:00:00 21.4 13 Noroeste 18 Noroeste 0 -- -- 37
2020-06-20 21:00:00 25.5 12 Norte 26 Noroeste 0 -- -- 28
2020-06-20 20:00:00 28 15 Norte 30 Norte 0 -- -- 25
2020-06-20 19:00:00 28.7 20 Norte 29 Norte 0 -- -- 21
2020-06-20 18:00:00 29.2 17 Norte 30 Norte 0 -- -- 23
2020-06-20 17:00:00 28.2 18 Norte 37 Norte 0 -- -- 25
2020-06-20 16:00:00 29 15 Norte 37 Noroeste 0 -- -- 23
2020-06-20 15:00:00 29.2 18 Norte 35 Norte 0 -- -- 24
2020-06-20 14:00:00 27.5 8 Este 22 Norte 0 -- -- 35
2020-06-20 13:00:00 26.9 8 Norte 19 Noroeste 0 -- -- 36
2020-06-20 12:00:00 25.1 7 Este 13 Sudeste 0 -- -- 40
2020-06-20 11:00:00 23.3 3 Nordeste 9 Sudeste 0 -- -- 49
2020-06-20 10:00:00 19.9 4 Sur 9 Sur 0 -- -- 66
2020-06-20 09:00:00 17.3 3 Sur 7 Sur 0 -- -- 81
2020-06-20 08:00:00 13.8 3 Noroeste 7 Noroeste 0 -- -- 91
2020-06-20 07:00:00 10.7 0 Calma 10 Norte 0 -- -- 96
2020-06-20 06:00:00 12.5 4 Sudoeste 7 Sudoeste 0 -- -- 98
2020-06-20 05:00:00 12.9 4 Sudoeste 11 Sudoeste 0 -- -- 98
2020-06-20 04:00:00 13.8 9 Sudoeste 14 Sudoeste 0 -- -- 96
2020-06-20 03:00:00 14.3 7 Sudoeste 13 Sur 0 -- -- 94
2020-06-20 02:00:00 14.7 11 Sur 17 Sur 0 -- -- 95
2020-06-20 01:00:00 15 10 Sur 17 Sur 0 -- -- 93
2020-06-20 00:00:00 15 9 Sudoeste 17 Sudoeste 0 -- -- 91
2020-06-19 23:00:00 16.1 12 Sudoeste 18 Sudoeste 0 -- -- 86
2020-06-19 22:00:00 17.4 12 Sudoeste 17 Sur 0 -- -- 80
2020-06-19 21:00:00 20.6 13 Sur 21 Sur 0 -- -- 64
2020-06-19 20:00:00 21.3 15 Sur 24 Sur 0 -- -- 62
2020-06-19 19:00:00 25.5 9 Noroeste 27 Norte 0 -- -- 44
2020-06-19 18:00:00 25.5 17 Noroeste 28 Noroeste 0 -- -- 35
2020-06-19 17:00:00 25.6 12 Noroeste 31 Norte 0 -- -- 34
2020-06-19 16:00:00 26 8 Noroeste 21 Noroeste 0 -- -- 38
2020-06-19 15:00:00 23.5 6 Norte 18 Este 0 -- -- 49
2020-06-19 14:00:00 22.7 10 Sudeste 17 Sudeste 0 -- -- 60
2020-06-19 13:00:00 17.5 8 Sudeste 24 Sudeste 5 -- -- 83
2020-06-19 12:00:00 19.9 13 Sur 31 Sur 0 -- -- 66
2020-06-19 11:00:00 21.1 14 Sur 26 Sur 0 -- -- 62
2020-06-19 10:00:00 19 15 Sur 27 Sur 0 -- -- 69
2020-06-19 09:00:00 17.3 17 Sur 32 Sur 0 -- -- 76
2020-06-19 08:00:00 15.9 12 Sur 21 Sur 0 -- -- 82
2020-06-19 07:00:00 14.5 14 Sur 27 Sur 0 -- -- 87
2020-06-19 06:00:00 14 13 Sur 22 Sur 0 -- -- 91
2020-06-19 05:00:00 15.1 12 Sur 23 Sur 0 -- -- 88
2020-06-19 04:00:00 14.9 9 Sur 18 Sur 0 -- -- 88
2020-06-19 03:00:00 14.9 11 Sur 19 Sur 0 -- -- 87
2020-06-19 02:00:00 15.2 6 Sudoeste 13 Sur 0 -- -- 87
2020-06-19 01:00:00 15.8 9 Sur 17 Sur 0 -- -- 84
2020-06-19 00:00:00 15.9 8 Sur 16 Sur 0 -- -- 84
2020-06-18 23:00:00 16.5 8 Sur 18 Sur 0 -- -- 80
2020-06-18 22:00:00 17.4 8 Sudoeste 17 Sur 0 -- -- 77
2020-06-18 21:00:00 18.8 12 Sudeste 19 Sudeste 0 -- -- 66
2020-06-18 20:00:00 19.8 9 Este 24 Sudeste 0 -- -- 64
2020-06-18 19:00:00 21 14 Este 30 Sudeste 0 -- -- 58
2020-06-18 18:00:00 21.8 16 Sudeste 29 Este 0 -- -- 54
2020-06-18 17:00:00 25.3 10 Nordeste 24 Nordeste 0 -- -- 35
2020-06-18 16:00:00 24.6 17 Norte 32 Norte 0 -- -- 37
2020-06-18 15:00:00 23.5 8 Sudeste 15 Este 0 -- -- 37
2020-06-18 14:00:00 22.8 7 Sudoeste 18 Sur 0 -- -- 41
2020-06-18 13:00:00 21.5 9 Sudeste 28 Sur 0 -- -- 44
2020-06-18 12:00:00 21.5 14 Sur 31 Sur 0 -- -- 50
2020-06-18 11:00:00 20 11 Sur 27 Sur 0 -- -- 53
2020-06-18 10:00:00 18.3 12 Sur 23 Sur 0 -- -- 65
2020-06-18 09:00:00 16.3 14 Sur 19 Sur 0 -- -- 76
2020-06-18 08:00:00 14.3 5 Sur 13 Sur 0 -- -- 84
2020-06-18 07:00:00 11.8 9 Sudoeste 16 Sudoeste 0 -- -- 93
2020-06-18 06:00:00 11.5 0 Calma 13 Sur 0 -- -- 92
2020-06-18 05:00:00 12.7 8 Sur 15 Sur 0 -- -- 88
2020-06-18 04:00:00 13.2 7 Sur 12 Sudoeste 0 -- -- 85
2020-06-18 03:00:00 13.3 6 Sudoeste 17 Sur 0 -- -- 86
2020-06-18 02:00:00 13.6 10 Sur 17 Sur 0 -- -- 85
2020-06-18 01:00:00 13.9 10 Sur 16 Sur 0 -- -- 84
2020-06-18 00:00:00 14 4 Sur 8 Sudoeste 0 -- -- 84
2020-06-17 23:00:00 14.7 4 Sudoeste 19 Sudeste 0 -- -- 80
2020-06-17 22:00:00 16.2 8 Sudeste 17 Sudeste 0 -- -- 62
2020-06-17 21:00:00 17.4 13 Este 25 Este 0 -- -- 56
2020-06-17 20:00:00 19.8 9 Nordeste 24 Norte 0 -- -- 45
2020-06-17 19:00:00 19.5 10 Nordeste 20 Nordeste 0 -- -- 45
2020-06-17 18:00:00 20.8 12 Nordeste 28 Norte 0 -- -- 42
2020-06-17 17:00:00 20.7 12 Nordeste 25 Norte 0 -- -- 43
2020-06-17 16:00:00 22.4 11 Norte 22 Norte 0 -- -- 40
2020-06-17 15:00:00 20 6 Norte 22 Norte 0 -- -- 43
2020-06-17 14:00:00 19.8 8 Noroeste 18 Noroeste 0 -- -- 44
2020-06-17 13:00:00 17.4 12 Norte 22 Noroeste 0 -- -- 52
2020-06-17 12:00:00 19.6 13 Nordeste 22 Norte 0 -- -- 51
2020-06-17 11:00:00 16.9 11 Nordeste 18 Norte 0 -- -- 63
2020-06-17 10:00:00 14.2 5 Nordeste 11 Nordeste 0 -- -- 74
2020-06-17 09:00:00 10.7 5 Nordeste 11 Nordeste 0 -- -- 92
2020-06-17 08:00:00 9.9 6 Nordeste 10 Norte 0 -- -- 97
2020-06-17 07:00:00 8.8 4 Nordeste 7 Nordeste 0 -- -- 96
2020-06-17 06:00:00 8.2 0 Calma 13 Norte 0 -- -- 97
2020-06-17 05:00:00 8.5 7 Norte 10 Norte 0 -- -- 95
2020-06-17 04:00:00 10.5 3 Norte 11 Norte 0 -- -- 89
2020-06-17 03:00:00 10.3 7 Norte 13 Nordeste 0 -- -- 93
2020-06-17 02:00:00 11.1 6 Norte 15 Norte 0 -- -- 91
2020-06-17 01:00:00 11.5 6 Nordeste 12 Este 0.2 -- -- 90
2020-06-17 00:00:00 12.7 7 Noroeste 15 Noroeste 0.2 -- -- 84
2020-06-16 23:00:00 12.5 11 Noroeste 19 Norte 0 -- -- 80
2020-06-16 22:00:00 13.4 14 Norte 36 Norte 0 -- -- 77
2020-06-16 21:00:00 18.7 10 Norte 24 Norte 0 -- -- 47
2020-06-16 20:00:00 20.4 15 Norte 32 Noroeste 0 -- -- 43
2020-06-16 19:00:00 21.2 20 Noroeste 32 Noroeste 0 -- -- 42
2020-06-16 18:00:00 20.2 0 Calma 14 Sudoeste 0 -- -- 54
2020-06-16 17:00:00 20.6 5 Sudoeste 12 Sur 0 -- -- 53
2020-06-16 16:00:00 18.7 4 Sudeste 10 Sudeste 0 -- -- 62
2020-06-16 15:00:00 16.3 3 Nordeste 12 Nordeste 0 -- -- 70
2020-06-16 14:00:00 13.2 8 Nordeste 22 Norte 1.4 -- -- 89
2020-06-16 13:00:00 13.5 13 Nordeste 26 Nordeste 0 -- -- 85
2020-06-16 12:00:00 16 17 Nordeste 28 Norte 0.2 -- -- 69
2020-06-16 11:00:00 13.5 14 Nordeste 23 Nordeste 0 -- -- 86
2020-06-16 10:00:00 14.7 15 Norte 22 Nordeste 0 -- -- 75
2020-06-16 09:00:00 14.5 12 Nordeste 22 Norte 0 -- -- 80
2020-06-16 08:00:00 13 8 Norte 15 Norte 0 -- -- 89
2020-06-16 07:00:00 10 4 Norte 8 Norte 0 -- -- 96
2020-06-16 06:00:00 9.7 0 Calma 8 Norte 0 -- -- 93
2020-06-16 05:00:00 9.9 0 Calma 8 Norte 0 -- -- 91
2020-06-16 04:00:00 11.1 0 Calma -- -- 0 -- -- 88
2020-06-16 03:00:00 11.1 0 Calma -- -- 0 -- -- 88
2020-06-16 02:00:00 11.9 0 Calma 12 Norte 0 -- -- 83
2020-06-16 01:00:00 13.5 8 Norte 14 Norte 0 -- -- 77
2020-06-16 00:00:00 14.2 11 Norte 17 Norte 0 -- -- 75
2020-06-15 23:00:00 16.2 10 Norte 26 Norte 0 -- -- 65
2020-06-15 22:00:00 17.9 17 Norte 31 Norte 0 -- -- 59
2020-06-15 21:00:00 21.3 10 Norte 15 Norte 0 -- -- 43
2020-06-15 20:00:00 23.1 10 Norte 20 Norte 0 -- -- 36
2020-06-15 19:00:00 23.6 10 Nordeste 23 Norte 0 -- -- 36
2020-06-15 18:00:00 25.7 13 Norte 24 Norte 0 -- -- 33
2020-06-15 17:00:00 24.3 4 Sudeste 24 Noroeste 0 -- -- 32
2020-06-15 16:00:00 24.5 9 Este 23 Nordeste 0 -- -- 35
2020-06-15 15:00:00 25.2 9 Norte 23 Norte 0 -- -- 34
2020-06-15 14:00:00 24.7 10 Nordeste 19 Nordeste 0 -- -- 37
2020-06-15 13:00:00 22.9 12 Norte 22 Noroeste 0 -- -- 41
2020-06-15 12:00:00 21.6 6 Este 18 Norte 0 -- -- 44
2020-06-15 11:00:00 19.3 9 Nordeste 16 Nordeste 0 -- -- 49
2020-06-15 10:00:00 16.8 6 Nordeste 10 Nordeste 0 -- -- 59
2020-06-15 09:00:00 12.6 2 Este 4 Sudeste 0 -- -- 73
2020-06-15 08:00:00 10.6 0 Calma 6 Noroeste 0 -- -- 80
2020-06-15 07:00:00 9 3 Noroeste 7 Noroeste 0 -- -- 86
2020-06-15 06:00:00 9 0 Calma -- -- 0 -- -- 85
2020-06-15 05:00:00 9.9 0 Calma 5 Nordeste 0 -- -- 82
2020-06-15 04:00:00 11.8 2 Nordeste 14 Norte 0 -- -- 75
2020-06-15 03:00:00 13.1 10 Norte 15 Norte 0 -- -- 69
2020-06-15 02:00:00 12.6 11 Noroeste 16 Norte 0 -- -- 72
2020-06-15 01:00:00 13.7 8 Norte 13 Norte 0 -- -- 68
2020-06-15 00:00:00 15.3 8 Norte 15 Norte 0 -- -- 61
2020-06-14 23:00:00 16.2 11 Norte 17 Norte 0 -- -- 56
2020-06-14 22:00:00 17.6 9 Noroeste 23 Norte 0 -- -- 47
2020-06-14 21:00:00 20.4 12 Norte 23 Noroeste 0 -- -- 39
2020-06-14 20:00:00 22.6 15 Norte 26 Norte 0 -- -- 34
2020-06-14 19:00:00 23.3 15 Noroeste 30 Norte 0 -- -- 32
2020-06-14 18:00:00 22.6 16 Noroeste 37 Noroeste 0 -- -- 32
2020-06-14 17:00:00 24.2 16 Norte 30 Norte 0 -- -- 30
2020-06-14 16:00:00 23.4 10 Noroeste 28 Noroeste 0 -- -- 30
2020-06-14 15:00:00 22.5 10 Noroeste 28 Noroeste 0 -- -- 33
2020-06-14 14:00:00 22.7 10 Noroeste 23 Noroeste 0 -- -- 33
2020-06-14 13:00:00 21.5 9 Oeste 29 Noroeste 0 -- -- 34
2020-06-14 12:00:00 21.1 5 Noroeste 12 Sudeste 0 -- -- 36
2020-06-14 11:00:00 18.1 7 Sudeste 12 Sudeste 0 -- -- 45
2020-06-14 10:00:00 15.7 4 Sudeste 9 Sur 0 -- -- 53
2020-06-14 09:00:00 11.8 4 Sur 8 Sur 0 -- -- 64
2020-06-14 08:00:00 8.6 6 Sur 12 Sur 0 -- -- 78
2020-06-14 07:00:00 7 3 Sur 8 Sur 0 -- -- 81
2020-06-14 06:00:00 6.9 0 Calma -- -- 0 -- -- 79
2020-06-14 05:00:00 6.7 0 Calma 6 Sur 0 -- -- 82
2020-06-14 04:00:00 7.8 0 Calma 8 Noroeste 0 -- -- 76
2020-06-14 03:00:00 7.9 0 Calma 6 Noroeste 0 -- -- 76
2020-06-14 02:00:00 9.7 0 Calma 8 Sudeste 0 -- -- 68
2020-06-14 01:00:00 10.7 2 Nordeste 13 Noroeste 0 -- -- 64
2020-06-14 00:00:00 11.7 8 Norte 15 Oeste 0 -- -- 59
2020-06-13 23:00:00 12.7 6 Oeste 14 Oeste 0 -- -- 54
2020-06-13 22:00:00 14.2 5 Noroeste 17 Noroeste 0 -- -- 50
2020-06-13 21:00:00 18.4 12 Noroeste 21 Noroeste 0 -- -- 37
2020-06-13 20:00:00 19.9 16 Noroeste 31 Noroeste 0 -- -- 32
2020-06-13 19:00:00 20.9 14 Noroeste 29 Norte 0 -- -- 31
2020-06-13 18:00:00 21.9 10 Noroeste 35 Noroeste 0 -- -- 30
2020-06-13 17:00:00 21.3 16 Norte 30 Noroeste 0 -- -- 30
2020-06-13 16:00:00 21 14 Norte 30 Noroeste 0 -- -- 31
2020-06-13 15:00:00 20.3 14 Norte 30 Norte 0 -- -- 33
2020-06-13 14:00:00 19 14 Noroeste 28 Norte 0 -- -- 36
2020-06-13 13:00:00 17.1 13 Noroeste 33 Noroeste 0 -- -- 45
2020-06-13 12:00:00 15.6 18 Noroeste 32 Noroeste 0 -- -- 47
2020-06-13 11:00:00 15.6 19 Norte 33 Noroeste 0 -- -- 48
2020-06-13 10:00:00 13.3 20 Noroeste 34 Noroeste 0 -- -- 55
2020-06-13 09:00:00 12.8 19 Norte 26 Noroeste 0 -- -- 59
2020-06-13 08:00:00 10.2 3 Nordeste 7 Sudeste 0 -- -- 74
2020-06-13 07:00:00 7.7 3 Este 7 Este 0 -- -- 81
2020-06-13 06:00:00 8.6 3 Este 14 Oeste 0 -- -- 76
2020-06-13 05:00:00 10.3 5 Oeste 25 Oeste 0 -- -- 68
2020-06-13 04:00:00 9.8 6 Oeste 14 Oeste 0 -- -- 69
2020-06-13 03:00:00 10.3 6 Norte 42 Oeste 0 -- -- 67
2020-06-13 02:00:00 11.6 12 Oeste 38 Noroeste 0 -- -- 59
2020-06-13 01:00:00 12.4 4 Oeste 28 Noroeste 0 -- -- 58
2020-06-13 00:00:00 13 10 Noroeste 23 Noroeste 0 -- -- 54
2020-06-12 23:00:00 13.9 8 Noroeste 18 Noroeste 0 -- -- 51
2020-06-12 22:00:00 14.8 5 Oeste 18 Oeste 0 -- -- 44
2020-06-12 21:00:00 16.2 9 Oeste 25 Oeste 0 -- -- 42
2020-06-12 20:00:00 18 10 Oeste 30 Oeste 0 -- -- 37
2020-06-12 19:00:00 19.3 15 Oeste 29 Oeste 0 -- -- 33
2020-06-12 18:00:00 19.9 19 Oeste 40 Noroeste 0 -- -- 32
2020-06-12 17:00:00 19.9 13 Oeste 32 Oeste 0 -- -- 32
2020-06-12 16:00:00 18.9 13 Oeste 32 Noroeste 0 -- -- 34
2020-06-12 15:00:00 19.7 13 Oeste 28 Oeste 0 -- -- 36
2020-06-12 14:00:00 18 10 Oeste 24 Oeste 0 -- -- 37
2020-06-12 13:00:00 18.4 11 Oeste 24 Oeste 0 -- -- 37
2020-06-12 12:00:00 16.5 8 Oeste 20 Noroeste 0 -- -- 41
2020-06-12 11:00:00 15 7 Sudoeste 20 Sudoeste 0 -- -- 45
2020-06-12 10:00:00 13.5 13 Oeste 28 Noroeste 0 -- -- 47
2020-06-12 09:00:00 12.5 14 Oeste 32 Noroeste 0 -- -- 49
2020-06-12 08:00:00 10.5 9 Oeste 30 Noroeste 0 -- -- 57
2020-06-12 07:00:00 10.4 7 Noroeste 20 Oeste 0 -- -- 59
2020-06-12 06:00:00 10.7 4 Noroeste 18 Noroeste 0 -- -- 61
2020-06-12 05:00:00 11 6 Noroeste 23 Oeste 0 -- -- 66
2020-06-12 04:00:00 12.3 13 Oeste 31 Noroeste 0 -- -- 61
2020-06-12 03:00:00 12.1 2 Nordeste 19 Oeste 0 -- -- 68
2020-06-12 02:00:00 15.1 8 Noroeste 30 Oeste 0 -- -- 57
2020-06-12 01:00:00 16 12 Oeste 32 Oeste 0 -- -- 53
2020-06-12 00:00:00 16.5 10 Oeste 34 Oeste 0 -- -- 50